sensor_id;sensor_type;location;lat;lon;timestamp;P1;durP1;ratioP1;P2;durP2;ratioP2
44516;SDS011;30223;17.182;-96.766;2023-02-15T15:09:35;2.88;;;2.03;;
44516;SDS011;30223;17.182;-96.766;2023-02-15T15:12:15;2.70;;;1.33;;
44516;SDS011;30223;17.182;-96.766;2023-02-15T15:14:49;5.88;;;2.05;;
44516;SDS011;30223;17.182;-96.766;2023-02-15T15:22:32;5.55;;;2.53;;
44516;SDS011;30223;17.182;-96.766;2023-02-15T15:25:01;3.08;;;1.83;;
44516;SDS011;30223;17.182;-96.766;2023-02-15T15:27:43;3.22;;;2.20;;
44516;SDS011;30223;17.182;-96.766;2023-02-15T15:49:19;2.25;;;1.60;;
44516;SDS011;30223;17.182;-96.766;2023-02-15T15:51:48;2.65;;;1.92;;
44516;SDS011;30223;17.182;-96.766;2023-02-15T15:54:23;4.95;;;2.08;;
44516;SDS011;30223;17.182;-96.766;2023-02-15T15:56:52;1.85;;;1.50;;
44516;SDS011;30223;17.182;-96.766;2023-02-15T15:59:26;3.55;;;1.52;;
44516;SDS011;30223;17.182;-96.766;2023-02-15T16:01:56;2.47;;;2.10;;
44516;SDS011;30223;17.182;-96.766;2023-02-15T16:04:36;3.08;;;2.22;;
44516;SDS011;30223;17.182;-96.766;2023-02-15T16:10:03;1.98;;;1.50;;
44516;SDS011;30223;17.182;-96.766;2023-02-15T16:12:36;1.40;;;1.23;;
44516;SDS011;30223;17.182;-96.766;2023-02-15T16:15:14;2.72;;;1.90;;
44516;SDS011;30223;17.182;-96.766;2023-02-15T16:17:44;2.75;;;1.83;;
44516;SDS011;30223;17.182;-96.766;2023-02-15T16:20:20;1.40;;;1.30;;
44516;SDS011;30223;17.182;-96.766;2023-02-15T16:22:52;4.07;;;1.60;;
44516;SDS011;30223;17.182;-96.766;2023-02-15T16:28:17;1.88;;;1.70;;
44516;SDS011;30223;17.182;-96.766;2023-02-15T16:30:45;2.58;;;1.85;;
44516;SDS011;30223;17.182;-96.766;2023-02-15T16:33:20;3.15;;;1.50;;
44516;SDS011;30223;17.182;-96.766;2023-02-15T16:35:54;3.55;;;1.60;;
44516;SDS011;30223;17.182;-96.766;2023-02-15T16:41:09;1.95;;;1.85;;
44516;SDS011;30223;17.182;-96.766;2023-02-15T16:43:42;3.63;;;1.63;;
44516;SDS011;30223;17.182;-96.766;2023-02-15T16:48:55;3.65;;;1.50;;
44516;SDS011;30223;17.182;-96.766;2023-02-15T16:51:25;3.97;;;1.67;;
44516;SDS011;30223;17.182;-96.766;2023-02-15T16:53:55;1.70;;;1.25;;
44516;SDS011;30223;17.182;-96.766;2023-02-15T16:56:31;2.58;;;1.75;;
44516;SDS011;30223;17.182;-96.766;2023-02-15T16:58:59;1.98;;;1.33;;
44516;SDS011;30223;17.182;-96.766;2023-02-15T17:01:27;2.50;;;1.80;;
44516;SDS011;30223;17.182;-96.766;2023-02-15T17:07:03;2.83;;;1.52;;
44516;SDS011;30223;17.182;-96.766;2023-02-15T17:09:54;3.15;;;1.30;;
44516;SDS011;30223;17.182;-96.766;2023-02-15T17:17:59;2.53;;;1.42;;
44516;SDS011;30223;17.182;-96.766;2023-02-15T17:20:39;2.80;;;1.35;;
44516;SDS011;30223;17.182;-96.766;2023-02-15T17:23:17;2.97;;;1.85;;
44516;SDS011;30223;17.182;-96.766;2023-02-15T17:25:49;1.25;;;1.15;;
44516;SDS011;30223;17.182;-96.766;2023-02-15T17:28:18;2.22;;;1.38;;
44516;SDS011;30223;17.182;-96.766;2023-02-15T17:30:47;2.95;;;1.83;;
44516;SDS011;30223;17.182;-96.766;2023-02-15T17:33:21;2.70;;;1.50;;
44516;SDS011;30223;17.182;-96.766;2023-02-15T17:36:11;3.05;;;1.77;;
44516;SDS011;30223;17.182;-96.766;2023-02-15T17:39:33;3.28;;;2.13;;
44516;SDS011;30223;17.182;-96.766;2023-02-15T17:41:53;2.33;;;1.40;;
44516;SDS011;30223;17.182;-96.766;2023-02-15T17:44:19;2.38;;;1.27;;
44516;SDS011;30223;17.182;-96.766;2023-02-15T17:46:49;2.50;;;1.60;;
44516;SDS011;30223;17.182;-96.766;2023-02-15T17:49:22;3.05;;;1.85;;
44516;SDS011;30223;17.182;-96.766;2023-02-15T17:52:00;2.78;;;1.98;;
44516;SDS011;30223;17.182;-96.766;2023-02-15T17:54:27;3.67;;;1.60;;
44516;SDS011;30223;17.182;-96.766;2023-02-15T17:57:13;2.10;;;1.83;;
44516;SDS011;30223;17.182;-96.766;2023-02-15T17:59:41;2.35;;;1.58;;
44516;SDS011;30223;17.182;-96.766;2023-02-15T18:02:27;3.50;;;1.75;;
44516;SDS011;30223;17.182;-96.766;2023-02-15T18:05:17;4.53;;;2.13;;
44516;SDS011;30223;17.182;-96.766;2023-02-15T18:08:02;2.60;;;1.88;;
44516;SDS011;30223;17.182;-96.766;2023-02-15T18:10:47;4.18;;;1.92;;
44516;SDS011;30223;17.182;-96.766;2023-02-15T18:13:32;3.28;;;1.73;;
44516;SDS011;30223;17.182;-96.766;2023-02-15T18:15:58;5.70;;;2.08;;
44516;SDS011;30223;17.182;-96.766;2023-02-15T18:18:25;1.88;;;1.67;;
44516;SDS011;30223;17.182;-96.766;2023-02-15T18:20:52;3.08;;;2.13;;
44516;SDS011;30223;17.182;-96.766;2023-02-15T18:23:19;2.60;;;2.08;;
44516;SDS011;30223;17.182;-96.766;2023-02-15T18:25:45;2.40;;;1.80;;
44516;SDS011;30223;17.182;-96.766;2023-02-15T18:28:12;2.40;;;1.73;;
44516;SDS011;30223;17.182;-96.766;2023-02-15T18:30:39;4.38;;;2.28;;
44516;SDS011;30223;17.182;-96.766;2023-02-15T18:33:32;3.13;;;2.05;;
44516;SDS011;30223;17.182;-96.766;2023-02-15T18:36:01;2.78;;;1.98;;
44516;SDS011;30223;17.182;-96.766;2023-02-15T18:38:31;2.85;;;2.17;;
44516;SDS011;30223;17.182;-96.766;2023-02-15T18:40:59;5.18;;;2.63;;
44516;SDS011;30223;17.182;-96.766;2023-02-15T18:45:53;3.28;;;2.53;;
44516;SDS011;30223;17.182;-96.766;2023-02-15T18:48:20;3.47;;;2.83;;
44516;SDS011;30223;17.182;-96.766;2023-02-15T18:50:47;3.50;;;2.55;;
44516;SDS011;30223;17.182;-96.766;2023-02-15T18:53:16;7.53;;;1.98;;
44516;SDS011;30223;17.182;-96.766;2023-02-15T18:55:45;4.10;;;2.35;;
44516;SDS011;30223;17.182;-96.766;2023-02-15T18:58:18;4.38;;;2.33;;
44516;SDS011;30223;17.182;-96.766;2023-02-15T19:00:45;2.30;;;2.10;;
44516;SDS011;30223;17.182;-96.766;2023-02-15T19:03:15;4.67;;;2.27;;
44516;SDS011;30223;17.182;-96.766;2023-02-15T19:05:43;5.30;;;2.87;;
44516;SDS011;30223;17.182;-96.766;2023-02-15T19:08:15;6.32;;;2.25;;
44516;SDS011;30223;17.182;-96.766;2023-02-15T19:10:49;3.35;;;2.58;;
44516;SDS011;30223;17.182;-96.766;2023-02-15T19:13:16;4.70;;;2.75;;
44516;SDS011;30223;17.182;-96.766;2023-02-15T19:15:43;3.97;;;2.95;;
44516;SDS011;30223;17.182;-96.766;2023-02-15T19:18:10;5.82;;;3.17;;
44516;SDS011;30223;17.182;-96.766;2023-02-15T19:20:38;5.60;;;3.03;;
44516;SDS011;30223;17.182;-96.766;2023-02-15T19:23:22;5.13;;;2.90;;
44516;SDS011;30223;17.182;-96.766;2023-02-15T19:25:49;5.03;;;3.30;;
44516;SDS011;30223;17.182;-96.766;2023-02-15T19:28:25;8.13;;;3.25;;
44516;SDS011;30223;17.182;-96.766;2023-02-15T19:31:01;6.40;;;3.97;;
44516;SDS011;30223;17.182;-96.766;2023-02-15T19:33:28;6.38;;;4.35;;
44516;SDS011;30223;17.182;-96.766;2023-02-15T19:35:54;3.78;;;3.25;;
44516;SDS011;30223;17.182;-96.766;2023-02-15T19:38:25;4.53;;;2.55;;
44516;SDS011;30223;17.182;-96.766;2023-02-15T19:40:56;4.25;;;3.20;;
44516;SDS011;30223;17.182;-96.766;2023-02-15T19:43:28;5.07;;;3.25;;
44516;SDS011;30223;17.182;-96.766;2023-02-15T19:45:55;5.15;;;3.08;;
44516;SDS011;30223;17.182;-96.766;2023-02-15T19:48:21;4.93;;;3.17;;
44516;SDS011;30223;17.182;-96.766;2023-02-15T19:50:49;6.82;;;4.22;;
44516;SDS011;30223;17.182;-96.766;2023-02-15T19:53:21;5.30;;;3.80;;
44516;SDS011;30223;17.182;-96.766;2023-02-15T19:55:49;4.80;;;3.30;;
44516;SDS011;30223;17.182;-96.766;2023-02-15T19:58:16;6.65;;;4.32;;
44516;SDS011;30223;17.182;-96.766;2023-02-15T20:00:44;5.75;;;3.60;;
44516;SDS011;30223;17.182;-96.766;2023-02-15T20:03:12;5.40;;;3.45;;
44516;SDS011;30223;17.182;-96.766;2023-02-15T20:05:39;6.30;;;2.92;;
44516;SDS011;30223;17.182;-96.766;2023-02-15T20:08:10;3.33;;;2.95;;
44516;SDS011;30223;17.182;-96.766;2023-02-15T20:10:43;6.10;;;3.25;;
44516;SDS011;30223;17.182;-96.766;2023-02-15T20:13:14;4.15;;;3.15;;
44516;SDS011;30223;17.182;-96.766;2023-02-15T20:15:42;5.22;;;2.83;;
44516;SDS011;30223;17.182;-96.766;2023-02-15T20:18:09;6.80;;;3.33;;
44516;SDS011;30223;17.182;-96.766;2023-02-15T20:23:21;4.28;;;3.10;;
44516;SDS011;30223;17.182;-96.766;2023-02-15T20:25:53;6.88;;;2.92;;
44516;SDS011;30223;17.182;-96.766;2023-02-15T20:28:24;6.57;;;3.03;;
44516;SDS011;30223;17.182;-96.766;2023-02-15T20:30:52;4.07;;;3.67;;
44516;SDS011;30223;17.182;-96.766;2023-02-15T20:33:19;3.58;;;2.50;;
44516;SDS011;30223;17.182;-96.766;2023-02-15T20:35:47;3.60;;;2.83;;
44516;SDS011;30223;17.182;-96.766;2023-02-15T20:38:18;3.30;;;2.63;;
44516;SDS011;30223;17.182;-96.766;2023-02-15T20:40:49;4.78;;;2.97;;
44516;SDS011;30223;17.182;-96.766;2023-02-15T20:43:34;6.70;;;3.10;;
44516;SDS011;30223;17.182;-96.766;2023-02-15T20:46:01;3.67;;;2.08;;
44516;SDS011;30223;17.182;-96.766;2023-02-15T20:48:28;3.78;;;2.80;;
44516;SDS011;30223;17.182;-96.766;2023-02-15T20:50:57;4.43;;;2.72;;
44516;SDS011;30223;17.182;-96.766;2023-02-15T20:53:24;3.15;;;2.28;;
44516;SDS011;30223;17.182;-96.766;2023-02-15T20:55:52;3.65;;;2.75;;
44516;SDS011;30223;17.182;-96.766;2023-02-15T20:58:23;5.50;;;3.92;;
44516;SDS011;30223;17.182;-96.766;2023-02-15T21:00:55;3.25;;;2.10;;
44516;SDS011;30223;17.182;-96.766;2023-02-15T21:03:24;3.13;;;2.67;;
44516;SDS011;30223;17.182;-96.766;2023-02-15T21:05:54;5.75;;;2.20;;
44516;SDS011;30223;17.182;-96.766;2023-02-15T21:08:22;4.28;;;2.92;;
44516;SDS011;30223;17.182;-96.766;2023-02-15T21:10:49;2.40;;;2.20;;
44516;SDS011;30223;17.182;-96.766;2023-02-15T21:13:28;5.28;;;2.70;;
44516;SDS011;30223;17.182;-96.766;2023-02-15T21:15:57;3.25;;;2.13;;
44516;SDS011;30223;17.182;-96.766;2023-02-15T21:20:53;3.80;;;2.78;;
44516;SDS011;30223;17.182;-96.766;2023-02-15T21:23:25;2.58;;;2.28;;
44516;SDS011;30223;17.182;-96.766;2023-02-15T21:25:59;2.95;;;2.65;;
44516;SDS011;30223;17.182;-96.766;2023-02-15T21:28:26;4.78;;;2.13;;
44516;SDS011;30223;17.182;-96.766;2023-02-15T21:30:54;2.90;;;2.30;;
44516;SDS011;30223;17.182;-96.766;2023-02-15T21:33:25;2.08;;;1.88;;
44516;SDS011;30223;17.182;-96.766;2023-02-15T21:35:52;6.28;;;2.05;;
44516;SDS011;30223;17.182;-96.766;2023-02-15T21:38:21;5.47;;;1.95;;
44516;SDS011;30223;17.182;-96.766;2023-02-15T21:43:19;3.10;;;2.15;;
44516;SDS011;30223;17.182;-96.766;2023-02-15T21:46:15;3.10;;;1.77;;
44516;SDS011;30223;17.182;-96.766;2023-02-15T21:49:02;2.72;;;2.10;;
44516;SDS011;30223;17.182;-96.766;2023-02-15T21:51:35;2.22;;;1.58;;
44516;SDS011;30223;17.182;-96.766;2023-02-15T21:54:19;10.25;;;2.38;;
44516;SDS011;30223;17.182;-96.766;2023-02-15T21:56:46;3.20;;;2.22;;
44516;SDS011;30223;17.182;-96.766;2023-02-15T21:59:15;2.80;;;1.80;;
44516;SDS011;30223;17.182;-96.766;2023-02-15T22:01:49;3.53;;;1.75;;
44516;SDS011;30223;17.182;-96.766;2023-02-15T22:04:34;2.80;;;2.50;;
44516;SDS011;30223;17.182;-96.766;2023-02-15T22:07:00;3.78;;;2.17;;
44516;SDS011;30223;17.182;-96.766;2023-02-15T22:09:27;3.22;;;1.88;;
44516;SDS011;30223;17.182;-96.766;2023-02-15T22:11:55;2.63;;;2.00;;
44516;SDS011;30223;17.182;-96.766;2023-02-15T22:14:38;5.45;;;2.70;;
44516;SDS011;30223;17.182;-96.766;2023-02-15T22:17:12;2.33;;;1.83;;
44516;SDS011;30223;17.182;-96.766;2023-02-15T22:19:41;3.28;;;1.95;;
44516;SDS011;30223;17.182;-96.766;2023-02-15T22:22:09;3.05;;;2.13;;
44516;SDS011;30223;17.182;-96.766;2023-02-15T22:24:36;5.43;;;2.33;;
44516;SDS011;30223;17.182;-96.766;2023-02-15T22:27:03;3.00;;;1.90;;
44516;SDS011;30223;17.182;-96.766;2023-02-15T22:29:30;2.75;;;1.73;;
44516;SDS011;30223;17.182;-96.766;2023-02-15T22:31:58;2.53;;;2.22;;
44516;SDS011;30223;17.182;-96.766;2023-02-15T22:34:26;2.80;;;1.70;;
44516;SDS011;30223;17.182;-96.766;2023-02-15T22:36:54;2.35;;;1.90;;
44516;SDS011;30223;17.182;-96.766;2023-02-15T22:39:21;3.17;;;2.25;;
44516;SDS011;30223;17.182;-96.766;2023-02-15T22:41:51;2.17;;;1.60;;
44516;SDS011;30223;17.182;-96.766;2023-02-15T22:44:23;5.40;;;1.90;;
44516;SDS011;30223;17.182;-96.766;2023-02-15T22:46:53;3.38;;;2.03;;
44516;SDS011;30223;17.182;-96.766;2023-02-15T22:49:20;3.00;;;1.83;;
44516;SDS011;30223;17.182;-96.766;2023-02-15T22:51:49;2.60;;;1.90;;
44516;SDS011;30223;17.182;-96.766;2023-02-15T22:54:17;2.42;;;1.65;;
44516;SDS011;30223;17.182;-96.766;2023-02-15T22:56:51;3.03;;;2.00;;
44516;SDS011;30223;17.182;-96.766;2023-02-15T22:59:20;8.57;;;2.17;;
44516;SDS011;30223;17.182;-96.766;2023-02-15T23:01:50;2.55;;;1.58;;
44516;SDS011;30223;17.182;-96.766;2023-02-15T23:04:18;4.05;;;1.70;;
